sensor_id;sensor_type;location;lat;lon;timestamp;P1;durP1;ratioP1;P2;durP2;ratioP2
67889;SDS011;54685;52.082;5.426;2023-04-25T00:02:02;18.52;;;3.20;;
67889;SDS011;54685;52.082;5.426;2023-04-25T00:04:29;17.42;;;3.60;;
67889;SDS011;54685;52.082;5.426;2023-04-25T00:06:59;17.65;;;3.65;;
67889;SDS011;54685;52.082;5.426;2023-04-25T00:09:27;17.98;;;3.33;;
67889;SDS011;54685;52.082;5.426;2023-04-25T00:11:55;16.55;;;3.67;;
67889;SDS011;54685;52.082;5.426;2023-04-25T00:14:22;14.40;;;3.55;;
67889;SDS011;54685;52.082;5.426;2023-04-25T00:16:49;20.27;;;3.78;;
67889;SDS011;54685;52.082;5.426;2023-04-25T00:19:18;15.63;;;3.38;;
67889;SDS011;54685;52.082;5.426;2023-04-25T00:21:44;25.73;;;4.43;;
67889;SDS011;54685;52.082;5.426;2023-04-25T00:24:12;11.88;;;3.17;;
67889;SDS011;54685;52.082;5.426;2023-04-25T00:26:39;11.85;;;3.03;;
67889;SDS011;54685;52.082;5.426;2023-04-25T00:29:06;19.90;;;3.83;;
67889;SDS011;54685;52.082;5.426;2023-04-25T00:31:33;23.20;;;4.07;;
67889;SDS011;54685;52.082;5.426;2023-04-25T00:34:00;22.98;;;3.78;;
67889;SDS011;54685;52.082;5.426;2023-04-25T00:36:27;25.13;;;4.55;;
67889;SDS011;54685;52.082;5.426;2023-04-25T00:38:54;18.45;;;3.95;;
67889;SDS011;54685;52.082;5.426;2023-04-25T00:41:22;28.65;;;4.90;;
67889;SDS011;54685;52.082;5.426;2023-04-25T00:43:50;18.75;;;4.05;;
67889;SDS011;54685;52.082;5.426;2023-04-25T00:46:18;16.05;;;3.97;;
67889;SDS011;54685;52.082;5.426;2023-04-25T00:48:45;15.57;;;3.75;;
67889;SDS011;54685;52.082;5.426;2023-04-25T00:51:14;22.90;;;4.07;;
67889;SDS011;54685;52.082;5.426;2023-04-25T00:53:45;21.48;;;3.97;;
67889;SDS011;54685;52.082;5.426;2023-04-25T00:56:15;13.80;;;3.38;;
67889;SDS011;54685;52.082;5.426;2023-04-25T00:58:43;14.68;;;3.10;;
67889;SDS011;54685;52.082;5.426;2023-04-25T01:01:10;14.68;;;3.50;;
67889;SDS011;54685;52.082;5.426;2023-04-25T01:03:38;22.42;;;3.75;;
67889;SDS011;54685;52.082;5.426;2023-04-25T01:06:09;15.85;;;3.35;;
67889;SDS011;54685;52.082;5.426;2023-04-25T01:08:38;26.88;;;4.20;;
67889;SDS011;54685;52.082;5.426;2023-04-25T01:11:05;15.35;;;3.50;;
67889;SDS011;54685;52.082;5.426;2023-04-25T01:13:33;15.57;;;3.72;;
67889;SDS011;54685;52.082;5.426;2023-04-25T01:16:02;15.23;;;3.40;;
67889;SDS011;54685;52.082;5.426;2023-04-25T01:18:29;13.48;;;3.17;;
67889;SDS011;54685;52.082;5.426;2023-04-25T01:20:56;15.00;;;3.25;;
67889;SDS011;54685;52.082;5.426;2023-04-25T01:23:33;11.00;;;3.65;;
67889;SDS011;54685;52.082;5.426;2023-04-25T01:26:00;16.63;;;3.95;;
67889;SDS011;54685;52.082;5.426;2023-04-25T01:28:28;17.85;;;3.80;;
67889;SDS011;54685;52.082;5.426;2023-04-25T01:30:56;16.15;;;3.78;;
67889;SDS011;54685;52.082;5.426;2023-04-25T01:33:24;11.88;;;3.40;;
67889;SDS011;54685;52.082;5.426;2023-04-25T01:35:51;15.77;;;3.50;;
67889;SDS011;54685;52.082;5.426;2023-04-25T01:38:19;18.98;;;3.80;;
67889;SDS011;54685;52.082;5.426;2023-04-25T01:40:46;22.20;;;3.60;;
67889;SDS011;54685;52.082;5.426;2023-04-25T01:43:18;17.05;;;3.65;;
67889;SDS011;54685;52.082;5.426;2023-04-25T01:45:45;17.20;;;3.55;;
67889;SDS011;54685;52.082;5.426;2023-04-25T01:48:13;10.50;;;3.25;;
67889;SDS011;54685;52.082;5.426;2023-04-25T01:50:42;16.35;;;3.70;;
67889;SDS011;54685;52.082;5.426;2023-04-25T01:53:11;19.48;;;3.72;;
67889;SDS011;54685;52.082;5.426;2023-04-25T01:55:42;11.57;;;2.95;;
67889;SDS011;54685;52.082;5.426;2023-04-25T01:58:12;17.90;;;3.20;;
67889;SDS011;54685;52.082;5.426;2023-04-25T02:01:02;17.20;;;3.45;;
67889;SDS011;54685;52.082;5.426;2023-04-25T02:03:38;17.13;;;3.05;;
67889;SDS011;54685;52.082;5.426;2023-04-25T02:06:11;19.33;;;4.25;;
67889;SDS011;54685;52.082;5.426;2023-04-25T02:08:43;18.65;;;4.18;;
67889;SDS011;54685;52.082;5.426;2023-04-25T02:11:12;16.98;;;3.95;;
67889;SDS011;54685;52.082;5.426;2023-04-25T02:13:45;14.73;;;3.38;;
67889;SDS011;54685;52.082;5.426;2023-04-25T02:16:30;25.13;;;3.83;;
67889;SDS011;54685;52.082;5.426;2023-04-25T02:19:00;14.10;;;3.35;;
67889;SDS011;54685;52.082;5.426;2023-04-25T02:21:29;10.40;;;2.92;;
67889;SDS011;54685;52.082;5.426;2023-04-25T02:23:58;23.27;;;4.22;;
67889;SDS011;54685;52.082;5.426;2023-04-25T02:26:27;16.98;;;3.30;;
67889;SDS011;54685;52.082;5.426;2023-04-25T02:28:55;16.83;;;4.03;;
67889;SDS011;54685;52.082;5.426;2023-04-25T02:31:23;16.10;;;3.30;;
67889;SDS011;54685;52.082;5.426;2023-04-25T02:33:51;15.45;;;3.65;;
67889;SDS011;54685;52.082;5.426;2023-04-25T02:36:18;21.17;;;3.88;;
67889;SDS011;54685;52.082;5.426;2023-04-25T02:38:47;13.90;;;3.28;;
67889;SDS011;54685;52.082;5.426;2023-04-25T02:41:14;15.75;;;3.58;;
67889;SDS011;54685;52.082;5.426;2023-04-25T02:43:41;19.70;;;3.25;;
67889;SDS011;54685;52.082;5.426;2023-04-25T02:46:08;17.48;;;3.30;;
67889;SDS011;54685;52.082;5.426;2023-04-25T02:48:35;23.42;;;4.15;;
67889;SDS011;54685;52.082;5.426;2023-04-25T02:51:02;21.15;;;3.80;;
67889;SDS011;54685;52.082;5.426;2023-04-25T02:53:29;19.35;;;3.65;;
67889;SDS011;54685;52.082;5.426;2023-04-25T02:55:56;17.17;;;3.22;;
67889;SDS011;54685;52.082;5.426;2023-04-25T02:58:24;15.05;;;3.63;;
67889;SDS011;54685;52.082;5.426;2023-04-25T03:00:52;22.80;;;4.45;;
67889;SDS011;54685;52.082;5.426;2023-04-25T03:03:20;16.35;;;3.95;;
67889;SDS011;54685;52.082;5.426;2023-04-25T03:05:51;27.25;;;3.95;;
67889;SDS011;54685;52.082;5.426;2023-04-25T03:08:23;14.65;;;3.30;;
67889;SDS011;54685;52.082;5.426;2023-04-25T03:10:52;15.70;;;3.47;;
67889;SDS011;54685;52.082;5.426;2023-04-25T03:13:23;13.45;;;3.90;;
67889;SDS011;54685;52.082;5.426;2023-04-25T03:15:50;16.73;;;3.80;;
67889;SDS011;54685;52.082;5.426;2023-04-25T03:18:17;17.08;;;3.97;;
67889;SDS011;54685;52.082;5.426;2023-04-25T03:20:44;12.60;;;3.20;;
67889;SDS011;54685;52.082;5.426;2023-04-25T03:23:13;13.32;;;3.92;;
67889;SDS011;54685;52.082;5.426;2023-04-25T03:25:41;19.33;;;3.65;;
67889;SDS011;54685;52.082;5.426;2023-04-25T03:28:08;11.63;;;3.00;;
67889;SDS011;54685;52.082;5.426;2023-04-25T03:30:35;15.65;;;3.47;;
67889;SDS011;54685;52.082;5.426;2023-04-25T03:33:02;20.88;;;4.10;;
67889;SDS011;54685;52.082;5.426;2023-04-25T03:35:29;14.13;;;3.60;;
67889;SDS011;54685;52.082;5.426;2023-04-25T03:37:56;13.27;;;4.00;;
67889;SDS011;54685;52.082;5.426;2023-04-25T03:40:29;12.77;;;3.45;;
67889;SDS011;54685;52.082;5.426;2023-04-25T03:43:15;22.00;;;4.40;;
67889;SDS011;54685;52.082;5.426;2023-04-25T03:45:49;21.45;;;4.18;;
67889;SDS011;54685;52.082;5.426;2023-04-25T03:48:20;20.90;;;4.25;;
67889;SDS011;54685;52.082;5.426;2023-04-25T03:50:53;15.80;;;3.47;;
67889;SDS011;54685;52.082;5.426;2023-04-25T03:53:21;15.75;;;4.05;;
67889;SDS011;54685;52.082;5.426;2023-04-25T03:56:16;23.08;;;4.15;;
67889;SDS011;54685;52.082;5.426;2023-04-25T03:58:45;11.45;;;3.13;;
67889;SDS011;54685;52.082;5.426;2023-04-25T04:01:15;15.90;;;3.63;;
67889;SDS011;54685;52.082;5.426;2023-04-25T04:03:41;13.80;;;2.95;;
67889;SDS011;54685;52.082;5.426;2023-04-25T04:06:09;14.15;;;3.22;;
67889;SDS011;54685;52.082;5.426;2023-04-25T04:08:42;15.30;;;3.28;;
67889;SDS011;54685;52.082;5.426;2023-04-25T04:11:10;21.92;;;4.00;;
67889;SDS011;54685;52.082;5.426;2023-04-25T04:13:37;16.98;;;4.35;;
67889;SDS011;54685;52.082;5.426;2023-04-25T04:16:05;16.90;;;3.75;;
67889;SDS011;54685;52.082;5.426;2023-04-25T04:18:35;13.00;;;3.50;;
67889;SDS011;54685;52.082;5.426;2023-04-25T04:21:02;15.57;;;3.25;;
67889;SDS011;54685;52.082;5.426;2023-04-25T04:23:33;10.13;;;2.80;;
67889;SDS011;54685;52.082;5.426;2023-04-25T04:26:01;11.90;;;3.10;;
67889;SDS011;54685;52.082;5.426;2023-04-25T04:28:51;14.32;;;3.45;;
67889;SDS011;54685;52.082;5.426;2023-04-25T04:31:37;12.75;;;3.50;;
67889;SDS011;54685;52.082;5.426;2023-04-25T04:34:04;18.70;;;3.90;;
67889;SDS011;54685;52.082;5.426;2023-04-25T04:36:33;17.55;;;3.50;;
67889;SDS011;54685;52.082;5.426;2023-04-25T04:39:00;13.85;;;2.70;;
67889;SDS011;54685;52.082;5.426;2023-04-25T04:41:46;15.38;;;2.83;;
67889;SDS011;54685;52.082;5.426;2023-04-25T04:47:17;12.52;;;2.90;;
67889;SDS011;54685;52.082;5.426;2023-04-25T04:50:10;9.05;;;2.42;;
67889;SDS011;54685;52.082;5.426;2023-04-25T04:53:13;15.10;;;2.97;;
67889;SDS011;54685;52.082;5.426;2023-04-25T04:56:03;17.50;;;2.75;;
67889;SDS011;54685;52.082;5.426;2023-04-25T04:58:49;12.13;;;2.45;;
67889;SDS011;54685;52.082;5.426;2023-04-25T05:01:39;19.10;;;2.97;;
67889;SDS011;54685;52.082;5.426;2023-04-25T05:04:23;15.10;;;3.30;;
67889;SDS011;54685;52.082;5.426;2023-04-25T05:07:01;11.20;;;2.60;;
67889;SDS011;54685;52.082;5.426;2023-04-25T05:09:43;14.38;;;2.85;;
67889;SDS011;54685;52.082;5.426;2023-04-25T05:12:16;12.32;;;2.70;;
67889;SDS011;54685;52.082;5.426;2023-04-25T05:14:55;14.90;;;3.08;;
67889;SDS011;54685;52.082;5.426;2023-04-25T05:17:31;16.45;;;3.17;;
67889;SDS011;54685;52.082;5.426;2023-04-25T05:20:17;13.23;;;4.82;;
67889;SDS011;54685;52.082;5.426;2023-04-25T05:23:04;13.05;;;3.50;;
67889;SDS011;54685;52.082;5.426;2023-04-25T05:25:49;15.00;;;2.88;;
67889;SDS011;54685;52.082;5.426;2023-04-25T05:28:30;11.45;;;2.83;;
67889;SDS011;54685;52.082;5.426;2023-04-25T05:31:26;16.23;;;3.63;;
67889;SDS011;54685;52.082;5.426;2023-04-25T05:34:12;13.57;;;2.22;;
67889;SDS011;54685;52.082;5.426;2023-04-25T05:36:50;14.32;;;2.88;;
67889;SDS011;54685;52.082;5.426;2023-04-25T05:39:18;14.00;;;2.70;;
67889;SDS011;54685;52.082;5.426;2023-04-25T05:42:11;16.35;;;2.88;;
67889;SDS011;54685;52.082;5.426;2023-04-25T05:44:47;12.02;;;2.25;;
67889;SDS011;54685;52.082;5.426;2023-04-25T05:47:40;14.77;;;2.55;;
67889;SDS011;54685;52.082;5.426;2023-04-25T05:50:21;8.65;;;2.08;;
67889;SDS011;54685;52.082;5.426;2023-04-25T05:52:52;8.88;;;1.73;;
67889;SDS011;54685;52.082;5.426;2023-04-25T05:55:26;8.52;;;2.45;;
67889;SDS011;54685;52.082;5.426;2023-04-25T05:57:53;6.35;;;1.95;;
67889;SDS011;54685;52.082;5.426;2023-04-25T06:00:21;11.82;;;2.63;;
67889;SDS011;54685;52.082;5.426;2023-04-25T06:02:49;15.57;;;2.30;;
67889;SDS011;54685;52.082;5.426;2023-04-25T06:05:17;12.82;;;1.92;;
67889;SDS011;54685;52.082;5.426;2023-04-25T06:07:46;11.45;;;2.20;;
67889;SDS011;54685;52.082;5.426;2023-04-25T06:10:13;12.60;;;2.20;;
67889;SDS011;54685;52.082;5.426;2023-04-25T06:12:41;9.82;;;2.00;;
67889;SDS011;54685;52.082;5.426;2023-04-25T06:15:08;9.40;;;1.98;;
67889;SDS011;54685;52.082;5.426;2023-04-25T06:17:52;10.10;;;2.22;;
67889;SDS011;54685;52.082;5.426;2023-04-25T06:20:21;8.18;;;1.73;;
67889;SDS011;54685;52.082;5.426;2023-04-25T06:22:52;13.73;;;2.78;;
67889;SDS011;54685;52.082;5.426;2023-04-25T06:25:23;10.55;;;1.92;;
67889;SDS011;54685;52.082;5.426;2023-04-25T06:27:50;13.88;;;2.13;;
67889;SDS011;54685;52.082;5.426;2023-04-25T06:30:17;13.48;;;2.47;;
67889;SDS011;54685;52.082;5.426;2023-04-25T06:32:51;11.15;;;1.70;;
67889;SDS011;54685;52.082;5.426;2023-04-25T06:35:19;5.57;;;1.70;;
67889;SDS011;54685;52.082;5.426;2023-04-25T06:37:47;9.57;;;1.95;;
67889;SDS011;54685;52.082;5.426;2023-04-25T06:40:20;10.32;;;1.77;;
67889;SDS011;54685;52.082;5.426;2023-04-25T06:42:48;15.25;;;1.88;;
67889;SDS011;54685;52.082;5.426;2023-04-25T06:45:53;9.27;;;1.45;;
67889;SDS011;54685;52.082;5.426;2023-04-25T06:48:22;8.55;;;1.52;;
67889;SDS011;54685;52.082;5.426;2023-04-25T06:50:51;15.55;;;2.17;;
67889;SDS011;54685;52.082;5.426;2023-04-25T06:53:18;7.32;;;1.73;;
67889;SDS011;54685;52.082;5.426;2023-04-25T06:55:51;12.88;;;2.08;;
67889;SDS011;54685;52.082;5.426;2023-04-25T06:58:20;8.48;;;1.52;;
67889;SDS011;54685;52.082;5.426;2023-04-25T07:00:48;12.27;;;1.98;;
67889;SDS011;54685;52.082;5.426;2023-04-25T07:03:16;11.07;;;1.50;;
67889;SDS011;54685;52.082;5.426;2023-04-25T07:05:44;13.90;;;2.17;;
67889;SDS011;54685;52.082;5.426;2023-04-25T07:08:12;8.57;;;1.88;;
67889;SDS011;54685;52.082;5.426;2023-04-25T07:10:40;10.70;;;2.05;;
67889;SDS011;54685;52.082;5.426;2023-04-25T07:13:10;11.05;;;1.80;;
67889;SDS011;54685;52.082;5.426;2023-04-25T07:15:37;13.63;;;1.88;;
67889;SDS011;54685;52.082;5.426;2023-04-25T07:18:05;10.27;;;2.35;;
67889;SDS011;54685;52.082;5.426;2023-04-25T07:20:32;8.25;;;1.52;;
67889;SDS011;54685;52.082;5.426;2023-04-25T07:23:01;12.65;;;2.25;;
67889;SDS011;54685;52.082;5.426;2023-04-25T07:25:28;14.60;;;3.15;;
67889;SDS011;54685;52.082;5.426;2023-04-25T07:27:56;10.60;;;2.30;;
67889;SDS011;54685;52.082;5.426;2023-04-25T07:30:25;9.00;;;1.98;;
67889;SDS011;54685;52.082;5.426;2023-04-25T07:35:32;10.00;;;2.00;;
67889;SDS011;54685;52.082;5.426;2023-04-25T07:38:13;20.85;;;2.63;;
67889;SDS011;54685;52.082;5.426;2023-04-25T07:40:40;13.77;;;2.38;;
67889;SDS011;54685;52.082;5.426;2023-04-25T07:43:09;10.80;;;1.95;;
67889;SDS011;54685;52.082;5.426;2023-04-25T07:45:58;10.70;;;1.80;;
67889;SDS011;54685;52.082;5.426;2023-04-25T07:48:28;6.40;;;1.50;;
67889;SDS011;54685;52.082;5.426;2023-04-25T07:53:27;7.63;;;1.55;;
67889;SDS011;54685;52.082;5.426;2023-04-25T07:56:00;9.45;;;1.67;;
67889;SDS011;54685;52.082;5.426;2023-04-25T07:58:30;7.95;;;1.60;;
67889;SDS011;54685;52.082;5.426;2023-04-25T08:01:00;13.70;;;1.67;;
67889;SDS011;54685;52.082;5.426;2023-04-25T08:03:45;9.40;;;1.80;;
67889;SDS011;54685;52.082;5.426;2023-04-25T08:06:33;5.57;;;1.50;;
67889;SDS011;54685;52.082;5.426;2023-04-25T08:09:07;9.23;;;1.73;;
67889;SDS011;54685;52.082;5.426;2023-04-25T08:11:38;10.20;;;1.60;;
67889;SDS011;54685;52.082;5.426;2023-04-25T08:14:07;6.50;;;1.40;;
67889;SDS011;54685;52.082;5.426;2023-04-25T08:16:35;13.13;;;1.40;;
67889;SDS011;54685;52.082;5.426;2023-04-25T08:19:02;11.55;;;1.15;;
67889;SDS011;54685;52.082;5.426;2023-04-25T08:21:29;14.60;;;1.90;;
67889;SDS011;54685;52.082;5.426;2023-04-25T08:24:00;8.20;;;1.33;;
67889;SDS011;54685;52.082;5.426;2023-04-25T08:26:33;7.30;;;1.55;;
67889;SDS011;54685;52.082;5.426;2023-04-25T08:29:01;11.25;;;1.88;;
67889;SDS011;54685;52.082;5.426;2023-04-25T08:31:28;14.43;;;1.50;;
67889;SDS011;54685;52.082;5.426;2023-04-25T08:33:58;13.05;;;1.70;;
67889;SDS011;54685;52.082;5.426;2023-04-25T08:36:40;5.80;;;1.17;;
67889;SDS011;54685;52.082;5.426;2023-04-25T08:39:26;6.25;;;1.27;;
67889;SDS011;54685;52.082;5.426;2023-04-25T08:42:16;12.88;;;1.30;;
67889;SDS011;54685;52.082;5.426;2023-04-25T08:44:45;8.50;;;1.50;;
67889;SDS011;54685;52.082;5.426;2023-04-25T08:47:13;5.10;;;0.73;;
67889;SDS011;54685;52.082;5.426;2023-04-25T08:49:45;9.55;;;1.38;;
67889;SDS011;54685;52.082;5.426;2023-04-25T08:52:15;2.75;;;0.75;;
67889;SDS011;54685;52.082;5.426;2023-04-25T08:54:54;7.07;;;1.20;;
67889;SDS011;54685;52.082;5.426;2023-04-25T08:57:21;4.38;;;1.00;;
67889;SDS011;54685;52.082;5.426;2023-04-25T09:00:27;2.63;;;0.73;;
67889;SDS011;54685;52.082;5.426;2023-04-25T09:02:55;7.13;;;1.08;;
67889;SDS011;54685;52.082;5.426;2023-04-25T09:05:26;5.63;;;1.00;;
67889;SDS011;54685;52.082;5.426;2023-04-25T09:07:55;7.72;;;1.13;;
67889;SDS011;54685;52.082;5.426;2023-04-25T09:10:23;9.98;;;1.33;;
67889;SDS011;54685;52.082;5.426;2023-04-25T09:15:47;4.72;;;1.10;;
67889;SDS011;54685;52.082;5.426;2023-04-25T09:18:36;8.57;;;1.70;;
67889;SDS011;54685;52.082;5.426;2023-04-25T09:21:05;7.22;;;1.38;;
67889;SDS011;54685;52.082;5.426;2023-04-25T09:23:45;7.28;;;1.73;;
67889;SDS011;54685;52.082;5.426;2023-04-25T09:26:20;10.02;;;1.67;;
67889;SDS011;54685;52.082;5.426;2023-04-25T09:28:49;12.20;;;1.73;;
67889;SDS011;54685;52.082;5.426;2023-04-25T09:31:31;6.07;;;1.38;;
67889;SDS011;54685;52.082;5.426;2023-04-25T09:34:02;9.25;;;1.45;;
67889;SDS011;54685;52.082;5.426;2023-04-25T09:36:39;12.05;;;1.88;;
67889;SDS011;54685;52.082;5.426;2023-04-25T09:39:20;10.50;;;1.92;;
67889;SDS011;54685;52.082;5.426;2023-04-25T09:41:57;8.48;;;1.80;;
67889;SDS011;54685;52.082;5.426;2023-04-25T09:44:24;10.55;;;1.20;;
67889;SDS011;54685;52.082;5.426;2023-04-25T09:46:53;11.38;;;1.52;;
67889;SDS011;54685;52.082;5.426;2023-04-25T09:49:24;6.93;;;1.48;;
67889;SDS011;54685;52.082;5.426;2023-04-25T09:55:08;6.78;;;1.33;;
67889;SDS011;54685;52.082;5.426;2023-04-25T09:57:35;6.85;;;1.23;;
67889;SDS011;54685;52.082;5.426;2023-04-25T10:00:07;4.40;;;1.00;;
67889;SDS011;54685;52.082;5.426;2023-04-25T10:02:45;5.80;;;1.15;;
67889;SDS011;54685;52.082;5.426;2023-04-25T10:05:34;10.57;;;1.40;;
67889;SDS011;54685;52.082;5.426;2023-04-25T10:08:02;4.15;;;1.00;;
67889;SDS011;54685;52.082;5.426;2023-04-25T10:10:32;5.30;;;1.10;;
67889;SDS011;54685;52.082;5.426;2023-04-25T10:13:03;7.85;;;1.60;;
67889;SDS011;54685;52.082;5.426;2023-04-25T10:15:33;6.60;;;1.35;;
67889;SDS011;54685;52.082;5.426;2023-04-25T10:18:05;7.18;;;1.45;;
67889;SDS011;54685;52.082;5.426;2023-04-25T10:20:33;11.43;;;1.63;;
67889;SDS011;54685;52.082;5.426;2023-04-25T10:23:06;8.63;;;1.67;;
67889;SDS011;54685;52.082;5.426;2023-04-25T10:25:38;5.40;;;1.35;;
67889;SDS011;54685;52.082;5.426;2023-04-25T10:28:06;3.50;;;0.93;;
67889;SDS011;54685;52.082;5.426;2023-04-25T10:30:33;9.15;;;0.90;;
67889;SDS011;54685;52.082;5.426;2023-04-25T10:33:00;6.95;;;1.30;;
67889;SDS011;54685;52.082;5.426;2023-04-25T10:35:29;5.88;;;1.25;;
67889;SDS011;54685;52.082;5.426;2023-04-25T10:38:04;10.27;;;1.40;;
67889;SDS011;54685;52.082;5.426;2023-04-25T10:40:38;2.72;;;1.30;;
67889;SDS011;54685;52.082;5.426;2023-04-25T10:46:01;5.55;;;1.42;;
67889;SDS011;54685;52.082;5.426;2023-04-25T10:48:30;4.47;;;1.45;;
67889;SDS011;54685;52.082;5.426;2023-04-25T10:54:09;4.82;;;0.90;;
67889;SDS011;54685;52.082;5.426;2023-04-25T10:59:09;5.50;;;1.17;;
67889;SDS011;54685;52.082;5.426;2023-04-25T11:01:41;7.40;;;1.15;;
67889;SDS011;54685;52.082;5.426;2023-04-25T11:04:22;7.80;;;1.55;;
67889;SDS011;54685;52.082;5.426;2023-04-25T11:09:34;8.50;;;1.40;;
67889;SDS011;54685;52.082;5.426;2023-04-25T11:12:03;4.30;;;1.10;;
67889;SDS011;54685;52.082;5.426;2023-04-25T11:14:30;7.03;;;1.15;;
67889;SDS011;54685;52.082;5.426;2023-04-25T11:16:58;4.20;;;1.13;;
67889;SDS011;54685;52.082;5.426;2023-04-25T11:19:26;10.82;;;1.30;;
67889;SDS011;54685;52.082;5.426;2023-04-25T11:22:00;7.25;;;1.80;;
67889;SDS011;54685;52.082;5.426;2023-04-25T11:24:32;6.82;;;1.05;;
67889;SDS011;54685;52.082;5.426;2023-04-25T11:27:01;6.72;;;1.15;;
67889;SDS011;54685;52.082;5.426;2023-04-25T11:29:30;5.28;;;1.25;;
67889;SDS011;54685;52.082;5.426;2023-04-25T11:31:59;5.18;;;1.15;;
67889;SDS011;54685;52.082;5.426;2023-04-25T11:34:28;4.32;;;1.30;;
67889;SDS011;54685;52.082;5.426;2023-04-25T11:37:00;4.53;;;1.27;;
67889;SDS011;54685;52.082;5.426;2023-04-25T11:39:28;4.45;;;1.30;;
67889;SDS011;54685;52.082;5.426;2023-04-25T11:41:55;3.53;;;1.10;;
67889;SDS011;54685;52.082;5.426;2023-04-25T11:44:22;6.00;;;1.23;;
67889;SDS011;54685;52.082;5.426;2023-04-25T11:46:50;2.80;;;1.20;;
67889;SDS011;54685;52.082;5.426;2023-04-25T11:49:17;5.43;;;1.23;;
67889;SDS011;54685;52.082;5.426;2023-04-25T11:52:06;5.13;;;1.67;;
67889;SDS011;54685;52.082;5.426;2023-04-25T11:54:37;5.80;;;1.17;;
67889;SDS011;54685;52.082;5.426;2023-04-25T11:57:30;9.30;;;1.35;;
67889;SDS011;54685;52.082;5.426;2023-04-25T12:00:18;5.15;;;1.25;;
67889;SDS011;54685;52.082;5.426;2023-04-25T12:02:47;5.10;;;1.17;;
67889;SDS011;54685;52.082;5.426;2023-04-25T12:05:27;10.30;;;1.40;;
67889;SDS011;54685;52.082;5.426;2023-04-25T12:08:17;4.22;;;1.30;;
67889;SDS011;54685;52.082;5.426;2023-04-25T12:10:44;4.70;;;1.25;;
67889;SDS011;54685;52.082;5.426;2023-04-25T12:13:25;6.85;;;1.60;;
67889;SDS011;54685;52.082;5.426;2023-04-25T12:15:54;5.10;;;1.25;;
67889;SDS011;54685;52.082;5.426;2023-04-25T12:18:25;4.47;;;1.40;;
67889;SDS011;54685;52.082;5.426;2023-04-25T12:20:54;4.22;;;1.17;;
67889;SDS011;54685;52.082;5.426;2023-04-25T12:23:25;2.80;;;1.10;;
67889;SDS011;54685;52.082;5.426;2023-04-25T12:25:59;7.47;;;1.42;;
67889;SDS011;54685;52.082;5.426;2023-04-25T12:28:29;8.80;;;1.05;;
67889;SDS011;54685;52.082;5.426;2023-04-25T12:31:00;4.00;;;1.35;;
67889;SDS011;54685;52.082;5.426;2023-04-25T12:33:30;7.68;;;1.45;;
67889;SDS011;54685;52.082;5.426;2023-04-25T12:35:58;6.13;;;1.55;;
67889;SDS011;54685;52.082;5.426;2023-04-25T12:38:36;4.88;;;1.10;;
67889;SDS011;54685;52.082;5.426;2023-04-25T12:41:07;5.90;;;1.13;;
67889;SDS011;54685;52.082;5.426;2023-04-25T12:43:35;7.93;;;1.10;;
67889;SDS011;54685;52.082;5.426;2023-04-25T12:46:05;8.18;;;1.38;;
67889;SDS011;54685;52.082;5.426;2023-04-25T12:48:31;6.32;;;1.10;;
67889;SDS011;54685;52.082;5.426;2023-04-25T12:50:59;7.70;;;1.33;;
67889;SDS011;54685;52.082;5.426;2023-04-25T12:53:26;2.90;;;0.90;;
67889;SDS011;54685;52.082;5.426;2023-04-25T12:55:54;4.72;;;0.90;;
67889;SDS011;54685;52.082;5.426;2023-04-25T12:58:21;3.70;;;1.00;;
67889;SDS011;54685;52.082;5.426;2023-04-25T13:00:48;6.50;;;1.55;;
67889;SDS011;54685;52.082;5.426;2023-04-25T13:03:15;6.18;;;1.20;;
67889;SDS011;54685;52.082;5.426;2023-04-25T13:05:43;5.75;;;0.90;;
67889;SDS011;54685;52.082;5.426;2023-04-25T13:08:10;6.20;;;1.05;;
67889;SDS011;54685;52.082;5.426;2023-04-25T13:10:38;9.88;;;1.63;;
67889;SDS011;54685;52.082;5.426;2023-04-25T13:13:05;8.00;;;1.20;;
67889;SDS011;54685;52.082;5.426;2023-04-25T13:15:35;4.55;;;1.20;;
67889;SDS011;54685;52.082;5.426;2023-04-25T13:18:03;4.75;;;1.38;;
67889;SDS011;54685;52.082;5.426;2023-04-25T13:20:32;9.27;;;1.40;;
67889;SDS011;54685;52.082;5.426;2023-04-25T13:23:01;3.78;;;1.17;;
67889;SDS011;54685;52.082;5.426;2023-04-25T13:25:28;3.65;;;1.08;;
67889;SDS011;54685;52.082;5.426;2023-04-25T13:27:55;5.13;;;1.15;;
67889;SDS011;54685;52.082;5.426;2023-04-25T13:30:22;5.25;;;1.60;;
67889;SDS011;54685;52.082;5.426;2023-04-25T13:32:49;6.70;;;1.48;;
67889;SDS011;54685;52.082;5.426;2023-04-25T13:35:18;6.85;;;1.35;;
67889;SDS011;54685;52.082;5.426;2023-04-25T13:37:47;5.38;;;1.38;;
67889;SDS011;54685;52.082;5.426;2023-04-25T13:40:14;6.45;;;1.50;;
67889;SDS011;54685;52.082;5.426;2023-04-25T13:42:41;5.15;;;1.10;;
67889;SDS011;54685;52.082;5.426;2023-04-25T13:45:10;6.47;;;1.20;;
67889;SDS011;54685;52.082;5.426;2023-04-25T13:47:37;2.58;;;1.02;;
67889;SDS011;54685;52.082;5.426;2023-04-25T13:50:04;5.35;;;1.20;;
67889;SDS011;54685;52.082;5.426;2023-04-25T13:52:32;6.07;;;1.15;;
67889;SDS011;54685;52.082;5.426;2023-04-25T13:54:59;3.83;;;1.02;;
67889;SDS011;54685;52.082;5.426;2023-04-25T13:57:27;5.28;;;0.95;;
67889;SDS011;54685;52.082;5.426;2023-04-25T13:59:54;7.50;;;1.55;;
67889;SDS011;54685;52.082;5.426;2023-04-25T14:02:21;8.00;;;1.33;;
67889;SDS011;54685;52.082;5.426;2023-04-25T14:04:48;8.00;;;1.35;;
67889;SDS011;54685;52.082;5.426;2023-04-25T14:07:15;9.48;;;1.55;;
67889;SDS011;54685;52.082;5.426;2023-04-25T14:09:42;9.05;;;1.38;;
67889;SDS011;54685;52.082;5.426;2023-04-25T14:12:09;6.18;;;1.38;;
67889;SDS011;54685;52.082;5.426;2023-04-25T14:14:37;5.68;;;1.80;;
67889;SDS011;54685;52.082;5.426;2023-04-25T14:17:05;3.80;;;1.30;;
67889;SDS011;54685;52.082;5.426;2023-04-25T14:19:32;6.97;;;1.45;;
67889;SDS011;54685;52.082;5.426;2023-04-25T14:21:59;8.90;;;1.20;;
67889;SDS011;54685;52.082;5.426;2023-04-25T14:24:26;5.13;;;1.30;;
67889;SDS011;54685;52.082;5.426;2023-04-25T14:26:53;4.30;;;1.05;;
67889;SDS011;54685;52.082;5.426;2023-04-25T14:29:20;8.20;;;1.30;;
67889;SDS011;54685;52.082;5.426;2023-04-25T14:31:48;3.17;;;0.90;;
67889;SDS011;54685;52.082;5.426;2023-04-25T14:34:15;7.72;;;1.48;;
67889;SDS011;54685;52.082;5.426;2023-04-25T14:36:42;6.68;;;1.20;;
67889;SDS011;54685;52.082;5.426;2023-04-25T14:39:09;5.50;;;1.25;;
67889;SDS011;54685;52.082;5.426;2023-04-25T14:41:36;5.68;;;1.23;;
67889;SDS011;54685;52.082;5.426;2023-04-25T14:44:03;8.15;;;1.33;;
67889;SDS011;54685;52.082;5.426;2023-04-25T14:46:30;4.97;;;1.35;;
67889;SDS011;54685;52.082;5.426;2023-04-25T14:48:58;3.20;;;1.10;;
67889;SDS011;54685;52.082;5.426;2023-04-25T14:51:25;7.82;;;1.27;;
67889;SDS011;54685;52.082;5.426;2023-04-25T14:53:52;4.35;;;1.40;;
67889;SDS011;54685;52.082;5.426;2023-04-25T14:56:20;3.70;;;1.08;;
67889;SDS011;54685;52.082;5.426;2023-04-25T14:58:47;7.72;;;1.20;;
67889;SDS011;54685;52.082;5.426;2023-04-25T15:01:14;7.47;;;2.40;;
67889;SDS011;54685;52.082;5.426;2023-04-25T15:03:41;5.15;;;1.55;;
67889;SDS011;54685;52.082;5.426;2023-04-25T15:06:11;7.50;;;1.52;;
67889;SDS011;54685;52.082;5.426;2023-04-25T15:08:39;4.80;;;1.40;;
67889;SDS011;54685;52.082;5.426;2023-04-25T15:11:06;5.30;;;1.55;;
67889;SDS011;54685;52.082;5.426;2023-04-25T15:13:33;7.80;;;1.33;;
67889;SDS011;54685;52.082;5.426;2023-04-25T15:16:01;3.13;;;1.15;;
67889;SDS011;54685;52.082;5.426;2023-04-25T15:18:28;9.48;;;3.63;;
67889;SDS011;54685;52.082;5.426;2023-04-25T15:20:55;43.53;;;12.75;;
67889;SDS011;54685;52.082;5.426;2023-04-25T15:23:22;17.75;;;5.68;;
67889;SDS011;54685;52.082;5.426;2023-04-25T15:25:51;18.52;;;7.40;;
67889;SDS011;54685;52.082;5.426;2023-04-25T15:28:18;64.70;;;16.67;;
67889;SDS011;54685;52.082;5.426;2023-04-25T15:30:47;22.50;;;8.02;;